Time;durP1;ratioP1;P1;durP2;ratioP2;P2;SDS_P1;SDS_P2;PMS_P1;PMS_P2;Temp;Humidity;BMP_temperature;BMP_pressure;BME280_temperature;BME280_humidity;BME280_pressure;Samples;Min_cycle;Max_cycle;Signal;HPM_P1;HPM_P2
2021/04/13 00:02:18;;;;;;;11.90;9.27;;;;;;;5.63;72.01;100603.41;5034912;28;20186;-72
2021/04/13 00:04:46;;;;;;;9.82;8.82;;;;;;;5.82;71.41;100603.88;5033358;28;20186;-71
2021/04/13 00:07:12;;;;;;;9.85;8.85;;;;;;;5.98;70.83;100609.78;5034524;28;20260;-70
2021/04/13 00:09:39;;;;;;;11.77;8.82;;;;;;;5.98;70.50;100601.78;5034185;28;20186;-71
2021/04/13 00:12:10;;;;;;;9.43;7.90;;;;;;;5.89;70.91;100604.63;5034484;28;20251;-71
2021/04/13 00:14:39;;;;;;;9.82;8.82;;;;;;;5.58;72.75;100608.84;5034579;28;20693;-71
2021/04/13 00:17:09;;;;;;;10.32;9.23;;;;;;;5.66;72.67;100606.03;5034298;28;20186;-71
2021/04/13 00:19:42;;;;;;;10.57;9.10;;;;;;;5.59;73.14;100607.94;5034521;28;20333;-71
2021/04/13 00:22:09;;;;;;;10.45;9.40;;;;;;;5.28;74.76;100604.16;5033886;28;20257;-71
2021/04/13 00:24:35;;;;;;;11.15;10.05;;;;;;;5.64;74.05;100605.19;5034424;28;20682;-71
2021/04/13 00:27:03;;;;;;;9.88;8.73;;;;;;;5.78;72.88;100597.72;5033951;28;20305;-70
2021/04/13 00:29:32;;;;;;;10.68;9.55;;;;;;;5.37;74.41;100601.31;5033851;28;20250;-71
2021/04/13 00:32:01;;;;;;;14.20;9.90;;;;;;;5.53;74.58;100597.38;5034422;28;20857;-70
2021/04/13 00:34:34;;;;;;;9.05;8.13;;;;;;;5.62;72.97;100597.19;5034021;28;20663;-70
2021/04/13 00:37:20;;;;;;;9.50;7.60;;;;;;;5.64;70.91;100603.38;5033950;28;20201;-72
2021/04/13 00:39:47;;;;;;;9.50;8.48;;;;;;;5.71;71.79;100603.25;5033880;28;20189;-70
2021/04/13 00:42:22;;;;;;;9.15;8.05;;;;;;;5.74;71.85;100601.38;5034006;28;20230;-71
2021/04/13 00:44:51;;;;;;;9.27;8.38;;;;;;;5.61;72.40;100607.94;5033636;28;20620;-71
2021/04/13 00:47:23;;;;;;;9.95;8.90;;;;;;;5.76;71.94;100604.03;5033332;28;20225;-71
2021/04/13 00:49:53;;;;;;;9.13;8.23;;;;;;;5.62;70.78;100601.66;5033419;28;20194;-71
2021/04/13 00:52:23;;;;;;;9.20;8.30;;;;;;;5.58;70.87;100605.28;5033622;28;20320;-71
2021/04/13 00:54:52;;;;;;;10.23;8.95;;;;;;;5.39;71.90;100604.81;5033693;28;20190;-70
2021/04/13 00:57:22;;;;;;;8.80;7.90;;;;;;;5.58;70.80;100600.81;5033526;28;20293;-70
2021/04/13 00:59:51;;;;;;;11.68;9.25;;;;;;;5.44;71.57;100602.94;5033568;28;20272;-72
2021/04/13 01:02:24;;;;;;;9.93;8.80;;;;;;;5.47;71.85;100610.00;5033284;28;20197;-71
2021/04/13 01:04:55;;;;;;;9.20;8.23;;;;;;;5.36;72.14;100607.53;5033096;28;20190;-71
2021/04/13 01:07:31;;;;;;;10.13;9.10;;;;;;;5.26;72.36;100606.84;5033522;28;20561;-70
2021/04/13 01:10:06;;;;;;;12.95;9.23;;;;;;;5.27;72.62;100605.97;5033053;28;20673;-71
2021/04/13 01:12:37;;;;;;;10.93;8.68;;;;;;;5.17;72.84;100602.56;5033336;28;20221;-71
2021/04/13 01:15:07;;;;;;;10.23;8.88;;;;;;;5.11;72.54;100602.72;5033225;28;20624;-70
2021/04/13 01:17:35;;;;;;;10.07;8.60;;;;;;;5.40;71.83;100604.81;5033297;28;20601;-71
2021/04/13 01:20:11;;;;;;;11.27;9.27;;;;;;;5.50;70.97;100605.47;5033135;28;20550;-70
2021/04/13 01:22:43;;;;;;;10.32;8.85;;;;;;;5.56;70.91;100613.38;5032901;28;20246;-71
2021/04/13 01:25:17;;;;;;;10.65;9.35;;;;;;;5.73;69.84;100609.44;5033285;28;20690;-70
2021/04/13 01:27:48;;;;;;;10.88;8.82;;;;;;;5.87;68.87;100609.13;5032810;28;20206;-71
2021/04/13 01:30:16;;;;;;;10.15;8.70;;;;;;;5.82;69.06;100602.09;5033112;28;20271;-72
2021/04/13 01:32:43;;;;;;;12.25;9.43;;;;;;;5.87;68.97;100599.31;5032942;28;20277;-71
2021/04/13 01:35:13;;;;;;;10.65;8.70;;;;;;;5.92;68.14;100602.75;5032601;28;20273;-72
2021/04/13 01:38:04;;;;;;;11.15;9.15;;;;;;;5.81;68.51;100599.44;5032395;28;20193;-71
2021/04/13 01:40:41;;;;;;;11.00;8.98;;;;;;;5.71;68.72;100605.91;5032768;28;20690;-71
2021/04/13 01:43:09;;;;;;;10.65;8.38;;;;;;;5.31;69.95;100599.63;5032842;28;20248;-70
2021/04/13 01:45:36;;;;;;;11.60;8.55;;;;;;;5.02;71.69;100602.91;5032183;28;20240;-71
2021/04/13 01:48:04;;;;;;;10.18;8.52;;;;;;;5.07;72.06;100602.81;5032236;28;20205;-71
2021/04/13 01:50:34;;;;;;;9.45;7.95;;;;;;;5.34;71.18;100612.06;5032165;28;20196;-70
2021/04/13 01:53:03;;;;;;;10.02;8.18;;;;;;;5.21;71.41;100611.41;5032728;28;20190;-71
2021/04/13 01:55:49;;;;;;;10.73;8.95;;;;;;;5.17;71.74;100607.91;5032550;28;20324;-71
2021/04/13 01:58:27;;;;;;;10.10;8.60;;;;;;;5.12;71.86;100603.59;5032072;28;20193;-70
2021/04/13 02:01:00;;;;;;;10.23;8.38;;;;;;;5.47;70.64;100604.66;5032771;28;20583;-70
2021/04/13 02:03:30;;;;;;;8.60;7.75;;;;;;;5.41;71.11;100606.53;5032459;28;20201;-70
2021/04/13 02:06:01;;;;;;;9.18;8.18;;;;;;;5.09;71.71;100599.19;5032035;28;20194;-70
2021/04/13 02:08:36;;;;;;;12.63;9.57;;;;;;;5.18;71.64;100608.81;5031931;28;20225;-71
2021/04/13 02:11:06;;;;;;;12.25;9.32;;;;;;;5.13;71.59;100605.34;5032301;28;20251;-73
2021/04/13 02:13:35;;;;;;;13.77;9.13;;;;;;;5.32;71.08;100608.53;5032041;28;20232;-72
2021/04/13 02:16:05;;;;;;;10.00;8.50;;;;;;;5.12;71.61;100608.94;5031842;28;20232;-71
2021/04/13 02:18:36;;;;;;;10.70;9.40;;;;;;;4.83;72.92;100601.47;5032178;28;20631;-71
2021/04/13 02:21:09;;;;;;;10.65;9.32;;;;;;;4.59;74.26;100609.03;5031745;28;20190;-72
2021/04/13 02:23:39;;;;;;;9.68;8.77;;;;;;;4.76;73.95;100612.25;5031602;28;20229;-70
2021/04/13 02:26:06;;;;;;;10.90;9.07;;;;;;;4.62;74.61;100613.44;5031729;28;20190;-71
2021/04/13 02:28:35;;;;;;;10.32;9.15;;;;;;;4.55;75.64;100628.66;5031934;28;20812;-71
2021/04/13 02:31:06;;;;;;;13.38;9.77;;;;;;;4.68;76.03;100619.53;5032065;28;20204;-70
2021/04/13 02:33:35;;;;;;;12.57;9.45;;;;;;;4.92;75.32;100619.97;5032013;28;20278;-71
2021/04/13 02:36:09;;;;;;;10.55;9.45;;;;;;;5.01;74.52;100625.16;5031877;28;20236;-71
2021/04/13 02:38:38;;;;;;;10.52;9.30;;;;;;;5.07;74.96;100627.72;5032118;28;20280;-71
2021/04/13 02:41:16;;;;;;;11.52;9.15;;;;;;;5.22;74.52;100623.84;5031968;28;20491;-70
2021/04/13 02:43:49;;;;;;;10.52;9.15;;;;;;;4.86;75.24;100631.66;5031553;28;20271;-70
2021/04/13 02:46:20;;;;;;;12.07;9.77;;;;;;;4.99;75.20;100627.84;5031813;28;20218;-71
2021/04/13 02:48:53;;;;;;;10.88;9.45;;;;;;;5.19;74.48;100622.13;5031399;28;20595;-71
2021/04/13 02:51:21;;;;;;;12.48;10.10;;;;;;;5.15;74.42;100620.41;5031908;28;20595;-71
2021/04/13 02:53:53;;;;;;;11.07;9.18;;;;;;;5.21;74.32;100622.09;5031804;28;20188;-71
2021/04/13 02:56:25;;;;;;;11.50;9.98;;;;;;;5.18;74.25;100622.16;5031832;28;20238;-72
2021/04/13 02:59:04;;;;;;;19.60;11.25;;;;;;;5.16;74.31;100619.50;5031751;28;20660;-70
2021/04/13 03:01:32;;;;;;;10.38;9.27;;;;;;;4.92;75.12;100628.00;5031423;28;20303;-71
2021/04/13 03:04:06;;;;;;;13.75;10.73;;;;;;;4.87;75.61;100622.75;5031445;28;20340;-70
2021/04/13 03:06:37;;;;;;;12.27;10.73;;;;;;;4.97;75.36;100636.78;5031920;28;20193;-70
2021/04/13 03:09:05;;;;;;;12.52;10.43;;;;;;;4.70;76.20;100635.50;5031584;28;20251;-71
2021/04/13 03:11:33;;;;;;;12.85;10.77;;;;;;;4.67;76.89;100633.75;5031213;28;20203;-72
2021/04/13 03:14:02;;;;;;;14.85;10.70;;;;;;;4.80;76.52;100645.13;5031628;28;20205;-71
2021/04/13 03:16:36;;;;;;;13.50;9.85;;;;;;;4.67;76.66;100639.09;5031936;28;20988;-71
2021/04/13 03:19:08;;;;;;;15.48;10.60;;;;;;;4.89;76.16;100636.94;5031694;28;20218;-71
2021/04/13 03:21:37;;;;;;;14.85;11.13;;;;;;;4.98;75.40;100646.56;5031293;28;20328;-71
2021/04/13 03:24:06;;;;;;;12.25;10.85;;;;;;;4.83;75.71;100646.84;5031488;28;20189;-71
2021/04/13 03:26:37;;;;;;;14.57;11.10;;;;;;;4.96;75.48;100659.06;5031537;28;20197;-70
2021/04/13 03:29:08;;;;;;;13.05;10.40;;;;;;;4.89;75.47;100654.75;5031471;28;20315;-70
2021/04/13 03:31:36;;;;;;;13.75;10.98;;;;;;;4.60;76.64;100657.00;5031478;28;20193;-71
2021/04/13 03:34:03;;;;;;;16.63;13.07;;;;;;;4.46;77.67;100659.03;5031269;28;20310;-71
2021/04/13 03:36:31;;;;;;;14.68;12.23;;;;;;;4.35;78.27;100656.53;5031486;28;20646;-71
2021/04/13 03:39:01;;;;;;;12.32;10.23;;;;;;;4.41;78.19;100651.97;5033809;28;20291;-70
2021/04/13 03:41:27;;;;;;;15.82;11.75;;;;;;;4.51;77.91;100648.28;5035135;28;20189;-70
2021/04/13 03:43:58;;;;;;;15.23;12.68;;;;;;;4.44;78.01;100657.28;5035028;28;20201;-71
2021/04/13 03:46:26;;;;;;;14.57;11.00;;;;;;;4.58;77.17;100652.59;5034957;28;20191;-71
2021/04/13 03:48:53;;;;;;;17.02;11.77;;;;;;;4.63;76.55;100658.72;5034853;28;20253;-71
2021/04/13 03:51:26;;;;;;;13.10;10.15;;;;;;;4.49;76.81;100661.63;5034934;28;20256;-71
2021/04/13 03:53:53;;;;;;;16.83;12.70;;;;;;;4.53;76.87;100665.13;5034732;28;20200;-71
2021/04/13 03:56:22;;;;;;;14.48;11.50;;;;;;;4.21;78.00;100671.84;5034930;28;20687;-71
2021/04/13 03:58:51;;;;;;;14.00;12.50;;;;;;;4.24;78.44;100663.81;5034373;28;20196;-71
2021/04/13 04:01:20;;;;;;;14.88;12.25;;;;;;;4.36;77.90;100662.72;5034816;28;20190;-71
2021/04/13 04:03:53;;;;;;;15.63;11.85;;;;;;;4.28;78.29;100664.66;5034817;28;20542;-71
2021/04/13 04:06:40;;;;;;;14.80;12.02;;;;;;;3.92;79.38;100667.81;5034469;28;20241;-71
2021/04/13 04:09:14;;;;;;;17.50;13.40;;;;;;;4.02;79.48;100670.34;5034518;28;20243;-70
2021/04/13 04:11:40;;;;;;;16.95;13.43;;;;;;;4.06;79.58;100669.41;5034638;28;20223;-70
2021/04/13 04:14:13;;;;;;;14.65;11.40;;;;;;;4.16;79.31;100674.59;5034644;28;20205;-71
2021/04/13 04:16:40;;;;;;;18.88;13.88;;;;;;;4.05;79.44;100681.88;5034219;28;20224;-70
2021/04/13 04:19:14;;;;;;;18.33;12.00;;;;;;;4.19;79.39;100687.00;5034667;28;20216;-70
2021/04/13 04:21:42;;;;;;;15.38;11.40;;;;;;;4.19;78.65;100679.00;5034191;28;20263;-70
2021/04/13 04:24:17;;;;;;;14.23;10.25;;;;;;;3.92;80.10;100690.94;5034368;28;20613;-69
2021/04/13 04:26:50;;;;;;;14.82;11.27;;;;;;;3.89;80.74;100689.19;5034049;28;20193;-70
2021/04/13 04:29:33;;;;;;;15.40;11.65;;;;;;;3.94;80.71;100689.13;5034240;28;20314;-71
2021/04/13 04:32:10;;;;;;;18.48;12.85;;;;;;;4.10;79.96;100690.66;5034278;28;20233;-71
2021/04/13 04:34:49;;;;;;;18.63;10.60;;;;;;;4.07;79.89;100696.06;5033785;28;20192;-71
2021/04/13 04:37:22;;;;;;;14.88;11.15;;;;;;;3.92;80.38;100689.13;5034355;28;20179;-70
2021/04/13 04:40:12;;;;;;;13.90;11.05;;;;;;;3.64;81.65;100693.03;5034261;28;20650;-71
2021/04/13 04:42:39;;;;;;;14.60;11.23;;;;;;;3.68;82.39;100694.78;5033885;28;20291;-70
2021/04/13 04:45:10;;;;;;;16.17;11.38;;;;;;;3.74;82.46;100692.91;5034197;28;20271;-70
2021/04/13 04:47:38;;;;;;;16.02;11.68;;;;;;;3.83;82.38;100696.38;5034058;28;20217;-70
2021/04/13 04:50:07;;;;;;;13.32;10.95;;;;;;;3.74;82.96;100697.38;5033241;28;20722;-71
2021/04/13 04:52:34;;;;;;;18.40;11.95;;;;;;;3.72;83.63;100708.03;5033607;28;20187;-70
2021/04/13 04:55:00;;;;;;;15.57;11.90;;;;;;;3.81;83.04;100706.16;5034003;28;20557;-70
2021/04/13 04:57:27;;;;;;;15.68;12.15;;;;;;;3.85;83.10;100708.78;5033731;28;20224;-70
2021/04/13 04:59:53;;;;;;;16.10;11.50;;;;;;;3.77;82.80;100715.97;5033890;28;20545;-71
2021/04/13 05:02:19;;;;;;;12.43;10.85;;;;;;;3.83;82.69;100718.56;5033721;28;20653;-70
2021/04/13 05:04:45;;;;;;;14.10;11.20;;;;;;;3.93;81.75;100714.91;5033689;28;20608;-71
2021/04/13 05:07:13;;;;;;;13.90;11.82;;;;;;;3.91;81.67;100718.47;5033228;28;20212;-71
2021/04/13 05:09:39;;;;;;;15.73;12.00;;;;;;;3.75;82.11;100724.00;5033204;28;20218;-71
2021/04/13 05:12:06;;;;;;;14.13;11.43;;;;;;;3.73;82.35;100719.56;5033561;28;20194;-71
2021/04/13 05:14:33;;;;;;;18.27;12.27;;;;;;;3.62;82.58;100726.81;5033165;28;20289;-71
2021/04/13 05:16:59;;;;;;;16.00;12.55;;;;;;;3.49;83.52;100729.63;5033317;28;20275;-71
2021/04/13 05:19:26;;;;;;;13.35;11.80;;;;;;;3.52;83.56;100731.38;5033228;28;20211;-73
2021/04/13 05:21:52;;;;;;;17.45;13.70;;;;;;;3.55;83.41;100737.56;5032955;28;20650;-71
2021/04/13 05:24:19;;;;;;;19.15;13.07;;;;;;;3.62;83.36;100740.13;5033520;28;20601;-71
2021/04/13 05:26:45;;;;;;;18.40;13.52;;;;;;;3.48;83.38;100741.19;5032977;28;20283;-71
2021/04/13 05:29:11;;;;;;;14.43;11.75;;;;;;;3.67;83.09;100741.84;5032648;28;20219;-71
2021/04/13 05:31:40;;;;;;;17.13;13.30;;;;;;;3.58;83.33;100741.09;5033057;28;20582;-71
2021/04/13 05:34:07;;;;;;;15.27;12.65;;;;;;;3.47;83.25;100744.72;5032962;28;20692;-71
2021/04/13 05:36:33;;;;;;;15.90;13.13;;;;;;;3.79;82.32;100758.59;5033099;28;20204;-70
2021/04/13 05:39:00;;;;;;;19.27;13.75;;;;;;;3.80;82.35;100747.03;5032632;28;20208;-70
2021/04/13 05:41:28;;;;;;;18.70;13.00;;;;;;;3.97;81.17;100755.69;5032894;28;20211;-70
2021/04/13 05:43:54;;;;;;;18.15;12.93;;;;;;;3.92;81.03;100752.22;5032161;28;20205;-71
2021/04/13 05:46:25;;;;;;;15.55;11.38;;;;;;;3.95;80.36;100755.72;5032692;28;20607;-71
2021/04/13 05:48:52;;;;;;;20.13;13.55;;;;;;;3.98;80.53;100762.81;5032682;28;20225;-71
2021/04/13 06:03:14;;;;;;;19.95;14.93;;;;;;;4.19;78.72;100780.31;5051690;28;20549;-71
2021/04/13 06:05:40;;;;;;;16.00;13.95;;;;;;;4.29;78.16;100765.06;5037031;28;20204;-71
2021/04/13 06:08:09;;;;;;;18.30;14.85;;;;;;;4.33;77.92;100772.13;5036490;28;20203;-71
2021/04/13 06:10:35;;;;;;;17.23;14.15;;;;;;;4.17;78.47;100774.09;5029280;28;20596;-71
2021/04/13 06:13:01;;;;;;;19.27;14.40;;;;;;;4.25;78.85;100776.66;5035628;28;20240;-72
2021/04/13 06:15:29;;;;;;;22.77;14.70;;;;;;;4.32;78.48;100781.91;5035291;28;20193;-71
2021/04/13 06:17:56;;;;;;;18.52;14.90;;;;;;;4.39;78.32;100780.03;5038264;28;20298;-72
2021/04/13 06:20:25;;;;;;;16.10;13.02;;;;;;;4.21;78.09;100786.50;5034356;28;20185;-72
2021/04/13 06:22:52;;;;;;;18.98;14.00;;;;;;;4.18;77.23;100787.44;5032128;28;20193;-71
2021/04/13 06:25:20;;;;;;;18.15;13.40;;;;;;;4.05;77.07;100779.56;5034923;28;20197;-70
2021/04/13 06:27:47;;;;;;;19.17;15.02;;;;;;;4.36;76.67;100788.97;5039183;28;20278;-72
2021/04/13 06:30:14;;;;;;;19.20;14.18;;;;;;;4.60;74.95;100793.06;5037867;28;20254;-71
2021/04/13 06:32:40;;;;;;;15.32;12.63;;;;;;;4.87;73.81;100790.00;5035269;28;20286;-71
2021/04/13 06:35:08;;;;;;;19.20;13.77;;;;;;;5.71;70.09;100793.88;5038285;28;20194;-70
2021/04/13 06:37:36;;;;;;;18.05;13.82;;;;;;;6.14;67.81;100792.16;5035106;28;20280;-72
2021/04/13 06:40:04;;;;;;;17.17;12.60;;;;;;;6.59;65.55;100800.13;5038228;28;20319;-71
2021/04/13 06:43:06;;;;;;;19.17;13.82;;;;;;;5.92;66.82;100802.38;5030885;28;20226;-72
2021/04/13 06:45:41;;;;;;;18.88;13.88;;;;;;;5.58;68.22;100797.69;5029166;28;20193;-72
2021/04/13 06:48:31;;;;;;;20.90;14.15;;;;;;;5.18;68.51;100801.94;5035914;28;20304;-71
2021/04/13 06:51:03;;;;;;;20.27;14.02;;;;;;;5.35;69.40;100806.09;5033170;28;20305;-71
2021/04/13 06:53:51;;;;;;;20.20;15.25;;;;;;;5.44;68.01;100804.16;5029504;28;20198;-72
2021/04/13 06:56:31;;;;;;;22.40;15.95;;;;;;;5.59;68.04;100802.13;5027785;28;20229;-72
2021/04/13 06:59:18;;;;;;;22.52;15.73;;;;;;;5.55;66.15;100803.09;5027386;28;20193;-71
2021/04/13 07:01:51;;;;;;;25.13;15.70;;;;;;;5.26;66.90;100811.59;5027828;28;20580;-72
2021/04/13 07:04:24;;;;;;;17.48;12.63;;;;;;;5.40;66.68;100813.16;5014383;28;20282;-69
2021/04/13 07:06:57;;;;;;;25.40;13.05;;;;;;;5.51;66.01;100812.06;5014666;28;20194;-71
2021/04/13 07:09:32;;;;;;;16.45;12.48;;;;;;;5.71;64.72;100809.91;5014635;28;20610;-70
2021/04/13 07:12:04;;;;;;;19.25;14.30;;;;;;;5.91;63.20;100806.84;5014239;28;20233;-70
2021/04/13 07:14:47;;;;;;;18.00;12.70;;;;;;;5.83;62.48;100819.47;5014123;28;20209;-71
2021/04/13 07:17:18;;;;;;;22.35;13.32;;;;;;;5.93;61.76;100807.69;5014264;28;20663;-71
2021/04/13 07:19:49;;;;;;;21.13;14.55;;;;;;;6.13;62.06;100812.69;5013887;28;20206;-69
2021/04/13 07:22:23;;;;;;;15.95;13.23;;;;;;;6.17;61.25;100814.41;5013835;28;20202;-72
2021/04/13 07:24:54;;;;;;;21.63;13.90;;;;;;;6.10;61.20;100822.56;5013842;28;20197;-70
2021/04/13 07:27:24;;;;;;;20.27;13.20;;;;;;;6.33;60.12;100812.28;5013638;28;20195;-72
2021/04/13 07:29:56;;;;;;;21.23;13.10;;;;;;;6.13;60.96;100811.78;5014030;28;20218;-73
2021/04/13 07:32:24;;;;;;;16.17;12.50;;;;;;;5.82;59.40;100817.72;5014072;28;20210;-72
2021/04/13 07:34:54;;;;;;;18.00;13.15;;;;;;;6.00;59.42;100813.84;5013650;28;20190;-71
2021/04/13 07:37:28;;;;;;;17.90;13.27;;;;;;;5.85;59.98;100818.53;5013826;28;20301;-71
2021/04/13 07:39:59;;;;;;;19.17;12.80;;;;;;;6.28;58.64;100815.94;5014027;28;20194;-71
2021/04/13 07:42:27;;;;;;;21.17;14.18;;;;;;;6.33;58.64;100819.41;5013824;28;20270;-72
2021/04/13 07:45:05;;;;;;;17.67;13.10;;;;;;;6.57;56.48;100818.88;5013829;28;20671;-72
2021/04/13 07:48:02;;;;;;;17.95;13.43;;;;;;;6.37;57.31;100816.63;5013724;28;20265;-72
2021/04/13 07:50:37;;;;;;;16.85;13.50;;;;;;;6.78;55.07;100820.16;5013703;28;20202;-71
2021/04/13 07:53:16;;;;;;;23.70;16.17;;;;;;;6.80;54.58;100818.34;5012807;28;20218;-71
2021/04/13 07:55:52;;;;;;;22.50;17.45;;;;;;;7.06;53.86;100812.38;5013462;28;20203;-72
2021/04/13 07:58:32;;;;;;;22.65;14.15;;;;;;;7.14;52.33;100812.19;5013508;28;20212;-72
2021/04/13 08:00:59;;;;;;;18.63;14.90;;;;;;;7.07;52.71;100813.25;5013574;28;20286;-72
2021/04/13 08:03:31;;;;;;;16.50;13.77;;;;;;;7.22;51.46;100814.69;5013021;28;20274;-71
2021/04/13 08:05:59;;;;;;;20.05;14.60;;;;;;;7.04;51.37;100814.22;5013397;28;20629;-70
2021/04/13 08:08:30;;;;;;;24.95;13.98;;;;;;;7.04;51.09;100814.22;5013381;28;20266;-72
2021/04/13 08:11:09;;;;;;;19.63;15.20;;;;;;;7.30;50.77;100815.34;5012918;28;20293;-71
2021/04/13 08:13:37;;;;;;;20.45;14.50;;;;;;;7.48;50.26;100808.66;5012931;28;20194;-72
2021/04/13 08:16:03;;;;;;;15.48;12.80;;;;;;;7.27;49.42;100812.78;5012594;28;20234;-71
2021/04/13 08:18:39;;;;;;;15.82;12.48;;;;;;;7.06;49.60;100816.88;5013332;28;20194;-73
2021/04/13 08:21:20;;;;;;;20.25;13.77;;;;;;;7.24;49.46;100813.72;5012952;28;20236;-71
2021/04/13 08:23:48;;;;;;;19.83;14.10;;;;;;;7.34;49.57;100813.50;5013202;28;20325;-72
2021/04/13 08:26:40;;;;;;;21.95;13.65;;;;;;;7.89;47.14;100804.88;5012456;28;20248;-70
2021/04/13 08:29:14;;;;;;;22.30;14.70;;;;;;;8.33;45.55;100796.47;5012604;28;20190;-71
2021/04/13 08:34:46;;;;;;;16.25;13.48;;;;;;;8.41;45.12;100802.53;5012716;28;20206;-72
2021/04/13 08:37:27;;;;;;;18.27;13.20;;;;;;;8.75;44.56;100794.31;5012359;28;20214;-72
2021/04/13 08:40:09;;;;;;;14.93;13.10;;;;;;;9.00;43.86;100793.53;5012446;28;20228;-71
2021/04/13 08:42:46;;;;;;;15.82;13.85;;;;;;;8.79;nan;100794.19;5012279;28;20243;-72
2021/04/13 08:45:19;;;;;;;17.27;13.75;;;;;;;7.94;47.63;100802.06;5012146;28;20612;-71
2021/04/13 08:47:47;;;;;;;18.00;13.45;;;;;;;7.85;46.75;100797.81;5012523;28;20638;-70
2021/04/13 08:50:29;;;;;;;14.60;12.02;;;;;;;7.36;46.65;100803.63;5012657;28;20225;-71
2021/04/13 08:52:56;;;;;;;13.63;11.48;;;;;;;7.19;46.07;100807.63;5012649;28;20237;-71
2021/04/13 08:55:40;;;;;;;18.65;14.30;;;;;;;7.15;47.27;100802.38;5012637;28;20191;-71
2021/04/13 08:58:29;;;;;;;14.65;12.02;;;;;;;7.67;44.98;100799.22;5012221;28;20306;-73
2021/04/13 09:00:57;;;;;;;16.45;11.25;;;;;;;7.96;42.87;100805.59;5012067;28;20226;-71
2021/04/13 09:03:26;;;;;;;16.40;12.80;;;;;;;7.74;42.76;100799.91;5011763;28;20186;-72
2021/04/13 09:06:11;;;;;;;16.70;11.88;;;;;;;7.68;43.72;100800.97;5011901;28;20286;-72
2021/04/13 09:08:52;;;;;;;16.60;11.18;;;;;;;7.61;42.66;100802.03;5011863;28;20225;-71
2021/04/13 09:11:27;;;;;;;13.02;10.10;;;;;;;7.94;40.56;100804.75;5009077;28;20217;-72
2021/04/13 09:14:12;;;;;;;15.15;12.30;;;;;;;8.43;41.16;100805.13;5012149;28;20203;-71
2021/04/13 09:16:47;;;;;;;15.80;11.95;;;;;;;9.10;40.35;100802.16;5012106;28;20191;-72
2021/04/13 09:19:26;;;;;;;14.57;11.18;;;;;;;9.17;41.01;100803.69;5012058;28;20279;-71
2021/04/13 09:21:52;;;;;;;14.32;11.95;;;;;;;8.57;41.56;100800.25;5012150;28;20238;-72
2021/04/13 09:24:23;;;;;;;12.90;10.73;;;;;;;7.75;42.88;100811.53;5012484;28;20206;-73
2021/04/13 09:27:24;;;;;;;17.02;12.43;;;;;;;8.32;42.58;100800.94;5011715;28;20651;-72
2021/04/13 09:29:54;;;;;;;15.98;12.55;;;;;;;8.58;41.90;100799.31;4998335;28;20294;-72
2021/04/13 09:32:43;;;;;;;16.80;12.65;;;;;;;8.87;40.98;100794.84;5011652;28;20212;-72
2021/04/13 09:35:50;;;;;;;13.98;12.48;;;;;;;8.57;41.22;100794.88;5011325;28;20224;-72
2021/04/13 09:38:43;;;;;;;16.13;12.65;;;;;;;8.94;40.91;100791.91;5011549;28;20643;-71
2021/04/13 09:41:18;;;;;;;25.75;19.15;;;;;;;9.34;40.28;100800.47;5011495;28;20229;-72
2021/04/13 09:44:12;;;;;;;15.68;12.25;;;;;;;9.12;40.41;100794.91;5011656;28;20216;-72
2021/04/13 09:46:50;;;;;;;13.20;9.95;;;;;;;8.60;37.95;100788.53;5011876;28;20204;-72
2021/04/13 09:49:35;;;;;;;12.50;9.63;;;;;;;8.59;36.55;100787.63;5011567;28;20554;-71
2021/04/13 09:52:41;;;;;;;11.45;9.00;;;;;;;8.90;37.00;100779.47;5011760;28;20235;-72
2021/04/13 09:55:24;;;;;;;13.00;9.93;;;;;;;8.69;36.78;100777.50;5011533;28;20187;-73
2021/04/13 09:58:33;;;;;;;10.55;9.07;;;;;;;8.31;36.37;100775.03;5011612;28;20214;-72
2021/04/13 10:01:19;;;;;;;8.50;7.55;;;;;;;8.25;36.63;100779.69;5011075;28;20205;-72
2021/04/13 10:04:20;;;;;;;9.70;7.68;;;;;;;8.20;34.11;100784.31;5011262;28;20187;-73
2021/04/13 10:07:05;;;;;;;8.95;7.40;;;;;;;8.68;35.01;100778.41;5011275;28;20208;-72
2021/04/13 10:09:40;;;;;;;9.80;7.95;;;;;;;8.89;35.68;100772.38;5011374;28;20298;-72
2021/04/13 10:12:44;;;;;;;10.02;8.48;;;;;;;8.97;36.68;100783.72;5011405;28;20246;-71
2021/04/13 10:15:45;;;;;;;13.02;9.73;;;;;;;9.27;35.23;100766.63;5010917;28;20200;-71
2021/04/13 10:18:42;;;;;;;8.95;7.95;;;;;;;9.07;35.15;100768.19;5011231;28;20221;-70
2021/04/13 10:21:20;;;;;;;11.75;8.80;;;;;;;9.78;34.57;100761.22;5010048;28;20580;-71
2021/04/13 10:24:18;;;;;;;11.57;8.95;;;;;;;9.55;34.20;100756.69;5011481;28;20635;-72
2021/04/13 10:27:14;;;;;;;10.48;7.50;;;;;;;9.05;34.69;100758.44;5010691;28;20299;-72
2021/04/13 10:30:13;;;;;;;9.90;7.72;;;;;;;9.43;34.65;100757.13;4998267;28;20215;-71
2021/04/13 10:33:04;;;;;;;8.98;7.75;;;;;;;9.60;34.16;100753.81;5008250;28;20318;-72
2021/04/13 10:36:09;;;;;;;8.95;7.50;;;;;;;9.79;33.84;100745.97;5011030;28;20216;-71
2021/04/13 10:39:13;;;;;;;14.15;9.43;;;;;;;9.85;34.57;100750.25;5013095;28;20228;-72
2021/04/13 10:42:22;;;;;;;8.90;7.72;;;;;;;9.86;34.33;100750.22;5015018;28;20525;-70
2021/04/13 10:45:24;;;;;;;8.48;7.40;;;;;;;9.79;31.87;100725.34;4999191;28;20215;-72
2021/04/13 10:48:32;;;;;;;8.45;7.05;;;;;;;9.68;33.44;100724.88;5014571;28;20188;-71
2021/04/13 10:51:22;;;;;;;11.23;7.32;;;;;;;9.33;33.60;100735.03;5013987;28;20192;-71
2021/04/13 10:54:42;;;;;;;9.57;7.45;;;;;;;9.50;33.75;100728.22;5014675;28;20191;-74
2021/04/13 10:57:27;;;;;;;10.80;9.27;;;;;;;9.55;33.19;100734.31;4953756;29;20707;-71
2021/04/13 11:00:14;;;;;;;9.48;6.78;;;;;;;9.73;32.49;100732.75;5007335;28;20567;-72
2021/04/13 11:03:16;;;;;;;7.95;6.95;;;;;;;9.78;32.52;100731.63;5013844;28;20707;-72
2021/04/13 11:06:18;;;;;;;14.57;8.07;;;;;;;9.66;31.98;100729.41;5014316;28;20234;-72
2021/04/13 11:09:12;;;;;;;9.55;7.50;;;;;;;9.67;33.97;100727.59;5010483;28;20286;-72
2021/04/13 11:12:21;;;;;;;8.43;7.57;;;;;;;10.03;33.63;100728.03;5014343;28;20703;-70
2021/04/13 11:15:24;;;;;;;11.60;8.45;;;;;;;9.66;34.56;100729.41;5013866;28;20395;-72
2021/04/13 11:18:02;;;;;;;9.45;8.15;;;;;;;10.11;34.63;100723.25;4998740;28;20221;-71
2021/04/13 11:21:11;;;;;;;13.02;8.55;;;;;;;10.45;34.56;100730.06;5013955;28;20205;-72
2021/04/13 11:23:53;;;;;;;9.50;8.40;;;;;;;10.69;33.80;100720.09;4994237;28;20213;-71
2021/04/13 11:26:57;;;;;;;10.13;8.88;;;;;;;10.62;33.02;100714.06;5013708;28;20201;-72
2021/04/13 11:30:08;;;;;;;9.38;8.40;;;;;;;10.62;32.97;100719.47;5013789;28;20200;-71
2021/04/13 11:33:11;;;;;;;10.00;8.10;;;;;;;10.89;32.46;100719.28;5013687;28;20212;-70
2021/04/13 11:35:40;;;;;;;10.70;7.30;;;;;;;10.24;33.70;100723.63;5013836;28;20293;-71
2021/04/13 11:38:36;;;;;;;8.80;6.97;;;;;;;10.11;33.57;100722.38;5014024;28;20600;-74
2021/04/13 11:41:22;;;;;;;7.75;6.65;;;;;;;9.75;33.95;100709.38;5013639;28;20201;-71
2021/04/13 11:43:52;;;;;;;7.63;6.93;;;;;;;9.59;34.10;100709.94;5002536;28;20236;-70
2021/04/13 11:46:26;;;;;;;8.45;6.50;;;;;;;9.65;34.32;100710.63;5013340;28;20188;-72
2021/04/13 11:49:00;;;;;;;10.10;7.15;;;;;;;9.75;34.03;100712.94;5013343;28;20315;-72
2021/04/13 11:51:34;;;;;;;7.07;6.13;;;;;;;9.77;34.48;100711.06;5013257;28;20674;-71
2021/04/13 11:54:53;;;;;;;7.88;6.28;;;;;;;9.70;33.80;100708.66;5013373;28;20275;-71
2021/04/13 11:57:22;;;;;;;7.82;6.45;;;;;;;9.47;33.48;100707.66;4998376;28;20204;-72
2021/04/13 12:00:28;;;;;;;8.15;6.10;;;;;;;10.15;33.20;100708.75;5013576;28;20201;-71
2021/04/13 12:03:04;;;;;;;8.48;6.97;;;;;;;10.22;32.57;100712.03;5004929;28;20228;-70
2021/04/13 12:05:41;;;;;;;7.75;6.30;;;;;;;10.20;33.13;100706.75;5013468;28;20289;-72
2021/04/13 12:08:08;;;;;;;8.25;6.38;;;;;;;10.16;33.34;100702.41;5013843;28;20208;-71
2021/04/13 12:10:54;;;;;;;5.85;5.25;;;;;;;10.33;30.98;100703.59;5013893;28;20374;-70
2021/04/13 12:13:40;;;;;;;5.57;4.95;;;;;;;10.48;30.07;100710.19;5013229;28;20192;-71
2021/04/13 12:16:08;;;;;;;7.30;4.20;;;;;;;10.63;29.41;100710.44;5013742;28;20572;-71
2021/04/13 12:19:07;;;;;;;6.60;4.53;;;;;;;11.09;28.31;100687.91;5013506;28;20581;-70